sensor_id;sensor_type;location;lat;lon;timestamp;pressure;altitude;pressure_sealevel;temperature;humidity
29907;BME280;16776;50.958;10.994;2022-11-18T00:01:30;96741.53;;;7.16;100.00
29907;BME280;16776;50.958;10.994;2022-11-18T00:03:57;96728.72;;;7.16;100.00
29907;BME280;16776;50.958;10.994;2022-11-18T00:06:25;96744.91;;;7.17;100.00
29907;BME280;16776;50.958;10.994;2022-11-18T00:08:53;96738.97;;;7.16;100.00
29907;BME280;16776;50.958;10.994;2022-11-18T00:11:23;96737.19;;;7.18;100.00
29907;BME280;16776;50.958;10.994;2022-11-18T00:14:12;96732.06;;;7.18;100.00
29907;BME280;16776;50.958;10.994;2022-11-18T00:16:46;96732.22;;;7.15;100.00
29907;BME280;16776;50.958;10.994;2022-11-18T00:19:13;96739.13;;;7.13;100.00
29907;BME280;16776;50.958;10.994;2022-11-18T00:21:40;96740.84;;;7.13;100.00
29907;BME280;16776;50.958;10.994;2022-11-18T00:24:06;96736.63;;;7.12;100.00
29907;BME280;16776;50.958;10.994;2022-11-18T00:26:34;96740.00;;;7.12;100.00
29907;BME280;16776;50.958;10.994;2022-11-18T00:29:01;96741.06;;;7.08;100.00
29907;BME280;16776;50.958;10.994;2022-11-18T00:31:28;96735.16;;;7.06;100.00
29907;BME280;16776;50.958;10.994;2022-11-18T00:33:55;96739.50;;;7.04;100.00
29907;BME280;16776;50.958;10.994;2022-11-18T00:36:21;96736.19;;;7.02;100.00
29907;BME280;16776;50.958;10.994;2022-11-18T00:38:48;96742.19;;;7.01;100.00
29907;BME280;16776;50.958;10.994;2022-11-18T00:41:15;96731.44;;;6.93;100.00
29907;BME280;16776;50.958;10.994;2022-11-18T00:43:42;96733.00;;;6.97;100.00
29907;BME280;16776;50.958;10.994;2022-11-18T00:46:10;96741.56;;;6.96;100.00
29907;BME280;16776;50.958;10.994;2022-11-18T00:48:37;96740.09;;;6.90;100.00
29907;BME280;16776;50.958;10.994;2022-11-18T00:51:10;96735.69;;;6.94;100.00
29907;BME280;16776;50.958;10.994;2022-11-18T00:53:38;96742.78;;;6.87;100.00
29907;BME280;16776;50.958;10.994;2022-11-18T00:56:05;96740.28;;;6.86;100.00
29907;BME280;16776;50.958;10.994;2022-11-18T00:58:32;96738.63;;;6.85;100.00
29907;BME280;16776;50.958;10.994;2022-11-18T01:01:00;96735.16;;;6.86;100.00
29907;BME280;16776;50.958;10.994;2022-11-18T01:03:27;96733.59;;;6.83;100.00
29907;BME280;16776;50.958;10.994;2022-11-18T01:05:54;96733.63;;;6.82;100.00
29907;BME280;16776;50.958;10.994;2022-11-18T01:08:22;96732.81;;;6.81;100.00
29907;BME280;16776;50.958;10.994;2022-11-18T01:10:51;96737.88;;;6.83;100.00
29907;BME280;16776;50.958;10.994;2022-11-18T01:13:20;96742.97;;;6.83;100.00
29907;BME280;16776;50.958;10.994;2022-11-18T01:15:49;96748.16;;;6.81;100.00
29907;BME280;16776;50.958;10.994;2022-11-18T01:18:20;96743.88;;;6.82;100.00
29907;BME280;16776;50.958;10.994;2022-11-18T01:20:46;96740.59;;;6.78;100.00
29907;BME280;16776;50.958;10.994;2022-11-18T01:23:14;96743.25;;;6.77;100.00
29907;BME280;16776;50.958;10.994;2022-11-18T01:25:43;96741.50;;;6.77;100.00
29907;BME280;16776;50.958;10.994;2022-11-18T01:28:11;96740.75;;;6.75;100.00
29907;BME280;16776;50.958;10.994;2022-11-18T01:30:39;96744.22;;;6.73;100.00
29907;BME280;16776;50.958;10.994;2022-11-18T01:33:07;96736.63;;;6.71;100.00
29907;BME280;16776;50.958;10.994;2022-11-18T01:35:35;96726.69;;;6.63;100.00
29907;BME280;16776;50.958;10.994;2022-11-18T01:38:03;96733.34;;;6.68;100.00
29907;BME280;16776;50.958;10.994;2022-11-18T01:40:30;96734.22;;;6.66;100.00
29907;BME280;16776;50.958;10.994;2022-11-18T01:42:57;96729.25;;;6.63;100.00
29907;BME280;16776;50.958;10.994;2022-11-18T01:45:28;96729.13;;;6.66;100.00
29907;BME280;16776;50.958;10.994;2022-11-18T01:48:03;96735.13;;;6.65;100.00
29907;BME280;16776;50.958;10.994;2022-11-18T01:50:32;96733.75;;;6.58;100.00
29907;BME280;16776;50.958;10.994;2022-11-18T01:53:04;96735.31;;;6.61;100.00
29907;BME280;16776;50.958;10.994;2022-11-18T01:55:34;96730.41;;;6.56;100.00
29907;BME280;16776;50.958;10.994;2022-11-18T01:58:07;96730.41;;;6.56;100.00
29907;BME280;16776;50.958;10.994;2022-11-18T02:00:36;96746.84;;;6.51;100.00
29907;BME280;16776;50.958;10.994;2022-11-18T02:03:03;96758.84;;;6.49;100.00
29907;BME280;16776;50.958;10.994;2022-11-18T02:05:31;96732.22;;;6.33;100.00
29907;BME280;16776;50.958;10.994;2022-11-18T02:08:00;96759.03;;;6.44;100.00
29907;BME280;16776;50.958;10.994;2022-11-18T02:10:28;96759.03;;;6.44;100.00
29907;BME280;16776;50.958;10.994;2022-11-18T02:12:55;96763.41;;;6.41;100.00
29907;BME280;16776;50.958;10.994;2022-11-18T02:15:29;96765.91;;;6.42;100.00
29907;BME280;16776;50.958;10.994;2022-11-18T02:18:04;96765.91;;;6.42;100.00
29907;BME280;16776;50.958;10.994;2022-11-18T02:20:35;96773.72;;;6.39;100.00
29907;BME280;16776;50.958;10.994;2022-11-18T02:23:22;96772.69;;;6.43;100.00
29907;BME280;16776;50.958;10.994;2022-11-18T02:26:11;96775.38;;;6.40;100.00
29907;BME280;16776;50.958;10.994;2022-11-18T02:28:59;96767.69;;;6.40;100.00
29907;BME280;16776;50.958;10.994;2022-11-18T02:31:32;96770.44;;;6.36;100.00
29907;BME280;16776;50.958;10.994;2022-11-18T02:34:03;96767.06;;;6.35;100.00
29907;BME280;16776;50.958;10.994;2022-11-18T02:36:38;96759.31;;;6.37;100.00
29907;BME280;16776;50.958;10.994;2022-11-18T02:39:12;96754.50;;;6.29;100.00
29907;BME280;16776;50.958;10.994;2022-11-18T02:41:43;96762.19;;;6.29;100.00
29907;BME280;16776;50.958;10.994;2022-11-18T02:44:14;96768.97;;;6.30;100.00
29907;BME280;16776;50.958;10.994;2022-11-18T02:46:43;96776.72;;;6.27;100.00
29907;BME280;16776;50.958;10.994;2022-11-18T02:49:14;96780.22;;;6.26;100.00
29907;BME280;16776;50.958;10.994;2022-11-18T02:51:46;96765.22;;;6.17;100.00
29907;BME280;16776;50.958;10.994;2022-11-18T02:54:14;96782.09;;;6.21;100.00
29907;BME280;16776;50.958;10.994;2022-11-18T02:56:42;96787.19;;;6.21;100.00
29907;BME280;16776;50.958;10.994;2022-11-18T02:59:10;96789.00;;;6.19;100.00
29907;BME280;16776;50.958;10.994;2022-11-18T03:01:38;96783.81;;;6.20;100.00
29907;BME280;16776;50.958;10.994;2022-11-18T03:04:05;96792.44;;;6.18;100.00
29907;BME280;16776;50.958;10.994;2022-11-18T03:06:35;96789.84;;;6.19;100.00
29907;BME280;16776;50.958;10.994;2022-11-18T03:09:08;96798.34;;;6.20;100.00
29907;BME280;16776;50.958;10.994;2022-11-18T03:11:44;96804.34;;;6.19;100.00
29907;BME280;16776;50.958;10.994;2022-11-18T03:14:20;96806.09;;;6.17;100.00
29907;BME280;16776;50.958;10.994;2022-11-18T03:16:59;96806.94;;;6.17;100.00
29907;BME280;16776;50.958;10.994;2022-11-18T03:19:33;96808.72;;;6.15;100.00
29907;BME280;16776;50.958;10.994;2022-11-18T03:22:09;96801.09;;;6.14;100.00
29907;BME280;16776;50.958;10.994;2022-11-18T03:24:40;96811.31;;;6.14;100.00
29907;BME280;16776;50.958;10.994;2022-11-18T03:27:11;96813.97;;;6.12;100.00
29907;BME280;16776;50.958;10.994;2022-11-18T03:29:43;96810.56;;;6.12;100.00
29907;BME280;16776;50.958;10.994;2022-11-18T03:32:15;96813.97;;;6.12;100.00
29907;BME280;16776;50.958;10.994;2022-11-18T03:34:44;96813.88;;;6.14;100.00
29907;BME280;16776;50.958;10.994;2022-11-18T03:37:14;96826.25;;;6.03;100.00
29907;BME280;16776;50.958;10.994;2022-11-18T03:39:45;96822.78;;;6.04;100.00
29907;BME280;16776;50.958;10.994;2022-11-18T03:42:15;96825.47;;;6.01;100.00
29907;BME280;16776;50.958;10.994;2022-11-18T03:44:48;96817.03;;;5.99;100.00
29907;BME280;16776;50.958;10.994;2022-11-18T03:47:21;96824.88;;;5.94;100.00
29907;BME280;16776;50.958;10.994;2022-11-18T03:49:52;96829.16;;;5.94;100.00
29907;BME280;16776;50.958;10.994;2022-11-18T03:52:23;96829.25;;;5.91;100.00
29907;BME280;16776;50.958;10.994;2022-11-18T03:54:54;96831.00;;;5.89;100.00
29907;BME280;16776;50.958;10.994;2022-11-18T03:57:26;96828.53;;;5.87;100.00
29907;BME280;16776;50.958;10.994;2022-11-18T03:59:57;96827.72;;;5.87;100.00
29907;BME280;16776;50.958;10.994;2022-11-18T04:02:27;96831.16;;;5.85;100.00
29907;BME280;16776;50.958;10.994;2022-11-18T04:04:56;96840.56;;;5.83;100.00
29907;BME280;16776;50.958;10.994;2022-11-18T04:07:28;96837.97;;;5.85;100.00
29907;BME280;16776;50.958;10.994;2022-11-18T04:09:59;96834.63;;;5.83;100.00
29907;BME280;16776;50.958;10.994;2022-11-18T04:12:30;96822.31;;;5.71;100.00
29907;BME280;16776;50.958;10.994;2022-11-18T04:14:58;96843.25;;;5.80;100.00
29907;BME280;16776;50.958;10.994;2022-11-18T04:17:27;96839.81;;;5.81;100.00
29907;BME280;16776;50.958;10.994;2022-11-18T04:19:54;96841.63;;;5.78;100.00
29907;BME280;16776;50.958;10.994;2022-11-18T04:22:21;96838.25;;;5.77;100.00
29907;BME280;16776;50.958;10.994;2022-11-18T04:24:47;96837.41;;;5.77;100.00
29907;BME280;16776;50.958;10.994;2022-11-18T04:27:14;96836.56;;;5.76;100.00
29907;BME280;16776;50.958;10.994;2022-11-18T04:29:41;96845.91;;;5.77;100.00
29907;BME280;16776;50.958;10.994;2022-11-18T04:32:07;96845.06;;;5.77;100.00
29907;BME280;16776;50.958;10.994;2022-11-18T04:34:35;96846.75;;;5.78;100.00
29907;BME280;16776;50.958;10.994;2022-11-18T04:37:02;96851.06;;;5.76;100.00
29907;BME280;16776;50.958;10.994;2022-11-18T04:39:28;96851.91;;;5.76;100.00
29907;BME280;16776;50.958;10.994;2022-11-18T04:41:55;96853.69;;;5.74;100.00
29907;BME280;16776;50.958;10.994;2022-11-18T04:44:22;96864.75;;;5.75;100.00
29907;BME280;16776;50.958;10.994;2022-11-18T04:46:49;96861.34;;;5.74;100.00
29907;BME280;16776;50.958;10.994;2022-11-18T04:49:16;96865.63;;;5.74;100.00
29907;BME280;16776;50.958;10.994;2022-11-18T04:51:45;96874.88;;;5.76;100.00
29907;BME280;16776;50.958;10.994;2022-11-18T04:54:12;96864.78;;;5.73;100.00
29907;BME280;16776;50.958;10.994;2022-11-18T04:56:39;96871.50;;;5.76;100.00
29907;BME280;16776;50.958;10.994;2022-11-18T04:59:06;96871.56;;;5.74;100.00
29907;BME280;16776;50.958;10.994;2022-11-18T05:01:33;96867.44;;;5.70;100.00
29907;BME280;16776;50.958;10.994;2022-11-18T05:04:00;96879.28;;;5.73;100.00
29907;BME280;16776;50.958;10.994;2022-11-18T05:06:28;96879.28;;;5.73;100.00
29907;BME280;16776;50.958;10.994;2022-11-18T05:08:57;96877.53;;;5.75;100.00
29907;BME280;16776;50.958;10.994;2022-11-18T05:11:25;96881.03;;;5.71;100.00
29907;BME280;16776;50.958;10.994;2022-11-18T05:14:09;96882.84;;;5.69;100.00
29907;BME280;16776;50.958;10.994;2022-11-18T05:16:36;96881.16;;;5.68;100.00
29907;BME280;16776;50.958;10.994;2022-11-18T05:19:03;96891.44;;;5.66;100.00
29907;BME280;16776;50.958;10.994;2022-11-18T05:21:33;96883.72;;;5.68;100.00
29907;BME280;16776;50.958;10.994;2022-11-18T05:24:02;96884.03;;;5.59;100.00
29907;BME280;16776;50.958;10.994;2022-11-18T05:26:29;96872.41;;;5.50;100.00
29907;BME280;16776;50.958;10.994;2022-11-18T05:28:56;96888.13;;;5.63;100.00
29907;BME280;16776;50.958;10.994;2022-11-18T05:31:22;96901.22;;;5.78;100.00
29907;BME280;16776;50.958;10.994;2022-11-18T05:33:49;96898.75;;;6.00;100.00
29907;BME280;16776;50.958;10.994;2022-11-18T05:36:17;96895.38;;;6.21;100.00
29907;BME280;16776;50.958;10.994;2022-11-18T05:38:44;96895.06;;;6.31;100.00
29907;BME280;16776;50.958;10.994;2022-11-18T05:41:12;96880.59;;;6.30;100.00
29907;BME280;16776;50.958;10.994;2022-11-18T05:44:00;96902.31;;;6.41;100.00
29907;BME280;16776;50.958;10.994;2022-11-18T05:46:26;96902.31;;;6.41;100.00
29907;BME280;16776;50.958;10.994;2022-11-18T05:48:52;96905.84;;;6.39;100.00
29907;BME280;16776;50.958;10.994;2022-11-18T05:51:19;96902.81;;;6.27;100.00
29907;BME280;16776;50.958;10.994;2022-11-18T05:53:47;96910.41;;;6.31;100.00
29907;BME280;16776;50.958;10.994;2022-11-18T05:56:18;96917.34;;;6.27;100.00
29907;BME280;16776;50.958;10.994;2022-11-18T05:58:46;96923.69;;;6.17;100.00
29907;BME280;16776;50.958;10.994;2022-11-18T06:01:15;96923.78;;;6.14;100.00
29907;BME280;16776;50.958;10.994;2022-11-18T06:03:43;96927.56;;;6.04;100.00
29907;BME280;16776;50.958;10.994;2022-11-18T06:06:12;96908.66;;;5.84;100.00
29907;BME280;16776;50.958;10.994;2022-11-18T06:08:43;96928.09;;;5.89;100.00
29907;BME280;16776;50.958;10.994;2022-11-18T06:11:17;96941.78;;;5.88;100.00
29907;BME280;16776;50.958;10.994;2022-11-18T06:13:49;96936.06;;;5.81;100.00
29907;BME280;16776;50.958;10.994;2022-11-18T06:16:20;96943.09;;;5.74;100.00
29907;BME280;16776;50.958;10.994;2022-11-18T06:18:47;96943.38;;;5.65;100.00
29907;BME280;16776;50.958;10.994;2022-11-18T06:21:14;96937.59;;;5.60;100.00
29907;BME280;16776;50.958;10.994;2022-11-18T06:23:41;96942.03;;;5.55;100.00
29907;BME280;16776;50.958;10.994;2022-11-18T06:26:08;96950.75;;;5.50;100.00
29907;BME280;16776;50.958;10.994;2022-11-18T06:28:38;96944.88;;;5.46;100.00
29907;BME280;16776;50.958;10.994;2022-11-18T06:31:05;96955.31;;;5.40;100.00
29907;BME280;16776;50.958;10.994;2022-11-18T06:33:32;96952.88;;;5.37;100.00
29907;BME280;16776;50.958;10.994;2022-11-18T06:35:59;96964.88;;;5.33;100.00
29907;BME280;16776;50.958;10.994;2022-11-18T06:38:25;96970.09;;;5.30;100.00
29907;BME280;16776;50.958;10.994;2022-11-18T06:40:52;96978.72;;;5.26;100.00
29907;BME280;16776;50.958;10.994;2022-11-18T06:43:18;96984.81;;;5.22;100.00
29907;BME280;16776;50.958;10.994;2022-11-18T06:46:05;96982.31;;;5.21;100.00
29907;BME280;16776;50.958;10.994;2022-11-18T06:48:49;96979.91;;;5.15;100.00
29907;BME280;16776;50.958;10.994;2022-11-18T06:51:16;96959.97;;;4.99;100.00
29907;BME280;16776;50.958;10.994;2022-11-18T06:53:43;96988.56;;;5.11;100.00
29907;BME280;16776;50.958;10.994;2022-11-18T06:56:11;96991.16;;;5.09;100.00
29907;BME280;16776;50.958;10.994;2022-11-18T06:58:38;96993.75;;;5.07;100.00
29907;BME280;16776;50.958;10.994;2022-11-18T07:01:10;97006.47;;;5.09;100.00
29907;BME280;16776;50.958;10.994;2022-11-18T07:03:37;97004.13;;;5.01;100.00
29907;BME280;16776;50.958;10.994;2022-11-18T07:06:04;97009.34;;;4.98;100.00
29907;BME280;16776;50.958;10.994;2022-11-18T07:08:31;97006.88;;;4.95;100.00
29907;BME280;16776;50.958;10.994;2022-11-18T07:10:57;97009.47;;;4.94;100.00
29907;BME280;16776;50.958;10.994;2022-11-18T07:13:24;97017.16;;;4.92;100.00
29907;BME280;16776;50.958;10.994;2022-11-18T07:15:50;97027.47;;;4.89;100.00
29907;BME280;16776;50.958;10.994;2022-11-18T07:18:18;97024.03;;;4.90;100.00
29907;BME280;16776;50.958;10.994;2022-11-18T07:20:45;97022.44;;;4.86;100.00
29907;BME280;16776;50.958;10.994;2022-11-18T07:23:11;97016.59;;;4.83;100.00
29907;BME280;16776;50.958;10.994;2022-11-18T07:25:38;97025.06;;;4.85;100.00
29907;BME280;16776;50.958;10.994;2022-11-18T07:28:04;97025.94;;;4.84;100.00
29907;BME280;16776;50.958;10.994;2022-11-18T07:30:31;97026.84;;;4.81;100.00
29907;BME280;16776;50.958;10.994;2022-11-18T07:32:57;97026.00;;;4.81;100.00
29907;BME280;16776;50.958;10.994;2022-11-18T07:35:25;97031.94;;;4.81;100.00
29907;BME280;16776;50.958;10.994;2022-11-18T07:37:52;97033.75;;;4.78;100.00
29907;BME280;16776;50.958;10.994;2022-11-18T07:40:19;97049.09;;;4.76;100.00
29907;BME280;16776;50.958;10.994;2022-11-18T07:42:45;97044.03;;;4.75;100.00
29907;BME280;16776;50.958;10.994;2022-11-18T07:45:12;97048.25;;;4.76;100.00
29907;BME280;16776;50.958;10.994;2022-11-18T07:47:38;97049.19;;;4.73;100.00
29907;BME280;16776;50.958;10.994;2022-11-18T07:50:06;97053.47;;;4.73;100.00
29907;BME280;16776;50.958;10.994;2022-11-18T07:52:34;97054.28;;;4.73;100.00
29907;BME280;16776;50.958;10.994;2022-11-18T07:55:00;97058.69;;;4.68;100.00
29907;BME280;16776;50.958;10.994;2022-11-18T07:57:27;97059.53;;;4.67;100.00
29907;BME280;16776;50.958;10.994;2022-11-18T07:59:53;97059.66;;;4.64;100.00
29907;BME280;16776;50.958;10.994;2022-11-18T08:02:20;97060.53;;;4.63;100.00
29907;BME280;16776;50.958;10.994;2022-11-18T08:04:46;97066.50;;;4.62;100.00
29907;BME280;16776;50.958;10.994;2022-11-18T08:07:13;97066.59;;;4.59;100.00
29907;BME280;16776;50.958;10.994;2022-11-18T08:09:41;97078.53;;;4.57;100.00
29907;BME280;16776;50.958;10.994;2022-11-18T08:12:07;97081.22;;;4.52;100.00
29907;BME280;16776;50.958;10.994;2022-11-18T08:14:34;97072.78;;;4.50;100.00
29907;BME280;16776;50.958;10.994;2022-11-18T08:17:01;97077.97;;;4.47;100.00
29907;BME280;16776;50.958;10.994;2022-11-18T08:19:27;97079.69;;;4.47;100.00
29907;BME280;16776;50.958;10.994;2022-11-18T08:21:54;97073.00;;;4.41;100.00
29907;BME280;16776;50.958;10.994;2022-11-18T08:24:20;97086.56;;;4.43;100.00
29907;BME280;16776;50.958;10.994;2022-11-18T08:26:48;97080.63;;;4.43;100.00
29907;BME280;16776;50.958;10.994;2022-11-18T08:29:15;97082.44;;;4.39;100.00
29907;BME280;16776;50.958;10.994;2022-11-18T08:31:42;97073.97;;;4.37;100.00
29907;BME280;16776;50.958;10.994;2022-11-18T08:34:08;97082.47;;;4.38;100.00
29907;BME280;16776;50.958;10.994;2022-11-18T08:36:36;97097.69;;;4.41;100.00
29907;BME280;16776;50.958;10.994;2022-11-18T08:39:06;97101.00;;;4.43;100.00
29907;BME280;16776;50.958;10.994;2022-11-18T08:41:34;97079.19;;;4.34;100.00
29907;BME280;16776;50.958;10.994;2022-11-18T08:44:03;97103.56;;;4.43;100.00
29907;BME280;16776;50.958;10.994;2022-11-18T08:46:30;97107.09;;;4.39;100.00
29907;BME280;16776;50.958;10.994;2022-11-18T08:48:57;97112.19;;;4.39;100.00
29907;BME280;16776;50.958;10.994;2022-11-18T08:51:24;97109.63;;;4.39;100.00
29907;BME280;16776;50.958;10.994;2022-11-18T08:53:51;97115.59;;;4.38;100.00
29907;BME280;16776;50.958;10.994;2022-11-18T08:56:19;97121.50;;;4.40;100.00
29907;BME280;16776;50.958;10.994;2022-11-18T08:58:45;97127.50;;;4.37;100.00
29907;BME280;16776;50.958;10.994;2022-11-18T09:01:13;97123.97;;;4.41;100.00
29907;BME280;16776;50.958;10.994;2022-11-18T09:03:40;97126.59;;;4.40;100.00
29907;BME280;16776;50.958;10.994;2022-11-18T09:06:09;97127.38;;;4.42;100.00
29907;BME280;16776;50.958;10.994;2022-11-18T09:08:35;97131.69;;;4.40;100.00
29907;BME280;16776;50.958;10.994;2022-11-18T09:11:04;97125.72;;;4.41;100.00
29907;BME280;16776;50.958;10.994;2022-11-18T09:13:31;97130.91;;;4.36;100.00
29907;BME280;16776;50.958;10.994;2022-11-18T09:15:58;97124.22;;;4.34;100.00
29907;BME280;16776;50.958;10.994;2022-11-18T09:18:26;97133.50;;;4.35;100.00
29907;BME280;16776;50.958;10.994;2022-11-18T09:20:53;97136.16;;;4.32;100.00
29907;BME280;16776;50.958;10.994;2022-11-18T09:23:20;97145.53;;;4.30;100.00
29907;BME280;16776;50.958;10.994;2022-11-18T09:25:47;97148.19;;;4.27;100.00
29907;BME280;16776;50.958;10.994;2022-11-18T09:28:14;97149.03;;;4.25;100.00
29907;BME280;16776;50.958;10.994;2022-11-18T09:30:40;97160.97;;;4.23;100.00
29907;BME280;16776;50.958;10.994;2022-11-18T09:33:07;97139.22;;;4.10;100.00
29907;BME280;16776;50.958;10.994;2022-11-18T09:35:40;97171.97;;;4.25;100.00
29907;BME280;16776;50.958;10.994;2022-11-18T09:38:07;97170.31;;;4.24;100.00
29907;BME280;16776;50.958;10.994;2022-11-18T09:40:38;97173.91;;;4.16;100.00
29907;BME280;16776;50.958;10.994;2022-11-18T09:43:18;97167.94;;;4.17;100.00
29907;BME280;16776;50.958;10.994;2022-11-18T09:45:50;97164.75;;;4.09;100.00
29907;BME280;16776;50.958;10.994;2022-11-18T09:48:20;97165.63;;;4.08;100.00
29907;BME280;16776;50.958;10.994;2022-11-18T09:51:10;97164.09;;;4.01;100.00
29907;BME280;16776;50.958;10.994;2022-11-18T09:53:38;97175.97;;;4.02;100.00
29907;BME280;16776;50.958;10.994;2022-11-18T09:56:11;97179.34;;;4.02;100.00
29907;BME280;16776;50.958;10.994;2022-11-18T09:58:39;97185.38;;;3.98;100.00
29907;BME280;16776;50.958;10.994;2022-11-18T10:01:10;97184.50;;;3.99;100.00
29907;BME280;16776;50.958;10.994;2022-11-18T10:03:38;97192.28;;;3.93;100.00
29907;BME280;16776;50.958;10.994;2022-11-18T10:06:16;97200.66;;;3.98;100.00
29907;BME280;16776;50.958;10.994;2022-11-18T10:08:55;97190.56;;;3.95;100.00
29907;BME280;16776;50.958;10.994;2022-11-18T10:11:26;97197.38;;;3.93;100.00
29907;BME280;16776;50.958;10.994;2022-11-18T10:14:01;97200.78;;;3.94;100.00
29907;BME280;16776;50.958;10.994;2022-11-18T10:16:39;97215.25;;;3.92;100.00
29907;BME280;16776;50.958;10.994;2022-11-18T10:19:20;97215.25;;;3.92;100.00
29907;BME280;16776;50.958;10.994;2022-11-18T10:21:56;97211.91;;;3.90;100.00
29907;BME280;16776;50.958;10.994;2022-11-18T10:24:29;97219.59;;;3.87;100.00
29907;BME280;16776;50.958;10.994;2022-11-18T10:26:59;97223.13;;;3.81;100.00
29907;BME280;16776;50.958;10.994;2022-11-18T10:29:26;97229.13;;;3.78;100.00
29907;BME280;16776;50.958;10.994;2022-11-18T10:31:57;97190.59;;;3.55;100.00
29907;BME280;16776;50.958;10.994;2022-11-18T10:34:26;97227.53;;;3.74;100.00
29907;BME280;16776;50.958;10.994;2022-11-18T10:37:02;97226.59;;;3.77;100.00
29907;BME280;16776;50.958;10.994;2022-11-18T10:39:30;97235.34;;;3.65;100.00
29907;BME280;16776;50.958;10.994;2022-11-18T10:42:00;97241.25;;;3.67;100.00
29907;BME280;16776;50.958;10.994;2022-11-18T10:44:36;97243.03;;;3.64;100.00
29907;BME280;16776;50.958;10.994;2022-11-18T10:47:25;97242.94;;;3.68;100.00
29907;BME280;16776;50.958;10.994;2022-11-18T10:49:53;97249.91;;;3.59;100.00
29907;BME280;16776;50.958;10.994;2022-11-18T10:52:22;97250.00;;;3.56;100.00
29907;BME280;16776;50.958;10.994;2022-11-18T10:55:05;97255.72;;;3.65;100.00
29907;BME280;16776;50.958;10.994;2022-11-18T10:57:34;97254.97;;;3.60;100.00
29907;BME280;16776;50.958;10.994;2022-11-18T11:00:04;97251.59;;;3.60;100.00
29907;BME280;16776;50.958;10.994;2022-11-18T11:02:38;97237.44;;;3.47;100.00
29907;BME280;16776;50.958;10.994;2022-11-18T11:05:15;97255.81;;;3.61;100.00
29907;BME280;16776;50.958;10.994;2022-11-18T11:07:44;97252.53;;;3.56;100.00
29907;BME280;16776;50.958;10.994;2022-11-18T11:10:19;97259.22;;;3.60;100.00
29907;BME280;16776;50.958;10.994;2022-11-18T11:12:50;97259.31;;;3.55;100.00
29907;BME280;16776;50.958;10.994;2022-11-18T11:15:23;97255.91;;;3.56;100.00
29907;BME280;16776;50.958;10.994;2022-11-18T11:17:53;97262.72;;;3.54;100.00
29907;BME280;16776;50.958;10.994;2022-11-18T11:20:35;97262.88;;;3.47;100.00
29907;BME280;16776;50.958;10.994;2022-11-18T11:23:08;97277.16;;;3.55;100.00
29907;BME280;16776;50.958;10.994;2022-11-18T11:25:41;97271.25;;;3.52;100.00
29907;BME280;16776;50.958;10.994;2022-11-18T11:28:16;97278.94;;;3.50;100.00
29907;BME280;16776;50.958;10.994;2022-11-18T11:30:50;97270.53;;;3.47;100.00
29907;BME280;16776;50.958;10.994;2022-11-18T11:33:31;97274.75;;;3.48;100.00
29907;BME280;16776;50.958;10.994;2022-11-18T11:36:22;97276.44;;;3.47;100.00
29907;BME280;16776;50.958;10.994;2022-11-18T11:39:09;97279.06;;;3.44;100.00
29907;BME280;16776;50.958;10.994;2022-11-18T11:41:48;97274.09;;;3.38;100.00
29907;BME280;16776;50.958;10.994;2022-11-18T11:44:28;97277.53;;;3.35;100.00
29907;BME280;16776;50.958;10.994;2022-11-18T11:47:06;97281.81;;;3.33;100.00
29907;BME280;16776;50.958;10.994;2022-11-18T11:50:05;97292.06;;;3.30;100.00
29907;BME280;16776;50.958;10.994;2022-11-18T11:52:42;97289.56;;;3.26;100.00
29907;BME280;16776;50.958;10.994;2022-11-18T11:55:21;97298.13;;;3.22;100.00
29907;BME280;16776;50.958;10.994;2022-11-18T11:58:01;97300.75;;;3.19;100.00
29907;BME280;16776;50.958;10.994;2022-11-18T12:00:32;97307.53;;;3.17;100.00
29907;BME280;16776;50.958;10.994;2022-11-18T12:03:09;97307.56;;;3.15;100.00
29907;BME280;16776;50.958;10.994;2022-11-18T12:05:41;97306.00;;;3.08;100.00
29907;BME280;16776;50.958;10.994;2022-11-18T12:08:11;97310.25;;;3.07;100.00
29907;BME280;16776;50.958;10.994;2022-11-18T12:10:44;97320.41;;;3.07;100.00
29907;BME280;16776;50.958;10.994;2022-11-18T12:13:20;97320.47;;;3.06;100.00
29907;BME280;16776;50.958;10.994;2022-11-18T12:16:00;97321.34;;;3.03;100.00
29907;BME280;16776;50.958;10.994;2022-11-18T12:18:34;97323.06;;;3.01;100.00
29907;BME280;16776;50.958;10.994;2022-11-18T12:21:03;97317.31;;;2.93;100.00
29907;BME280;16776;50.958;10.994;2022-11-18T12:23:31;97328.34;;;2.92;100.00
29907;BME280;16776;50.958;10.994;2022-11-18T12:26:01;97325.78;;;2.92;100.00
29907;BME280;16776;50.958;10.994;2022-11-18T12:28:31;97306.56;;;2.75;100.00
29907;BME280;16776;50.958;10.994;2022-11-18T12:31:30;97330.03;;;2.92;100.00
29907;BME280;16776;50.958;10.994;2022-11-18T12:34:00;97330.16;;;2.84;100.00
29907;BME280;16776;50.958;10.994;2022-11-18T12:36:28;97328.50;;;2.82;100.00
29907;BME280;16776;50.958;10.994;2022-11-18T12:38:56;97310.22;;;2.60;100.00
29907;BME280;16776;50.958;10.994;2022-11-18T12:41:54;97342.03;;;2.84;100.00
29907;BME280;16776;50.958;10.994;2022-11-18T12:44:39;97336.38;;;2.68;100.00
29907;BME280;16776;50.958;10.994;2022-11-18T12:47:07;97348.28;;;2.64;100.00
29907;BME280;16776;50.958;10.994;2022-11-18T12:52:53;97357.59;;;2.64;100.00
29907;BME280;16776;50.958;10.994;2022-11-18T12:55:29;97358.53;;;2.58;100.00
29907;BME280;16776;50.958;10.994;2022-11-18T12:57:58;97351.84;;;2.53;100.00
29907;BME280;16776;50.958;10.994;2022-11-18T13:00:30;97360.31;;;2.53;100.00
29907;BME280;16776;50.958;10.994;2022-11-18T13:02:59;97361.19;;;2.49;100.00
29907;BME280;16776;50.958;10.994;2022-11-18T13:05:27;97359.56;;;2.47;100.00
29907;BME280;16776;50.958;10.994;2022-11-18T13:07:57;97361.25;;;2.46;100.00
29907;BME280;16776;50.958;10.994;2022-11-18T13:10:45;97377.38;;;2.44;100.00